Time;durP1;ratioP1;P1;durP2;ratioP2;P2;SDS_P1;SDS_P2;PMS_P1;PMS_P2;Temp;Humidity;BMP_temperature;BMP_pressure;BME280_temperature;BME280_humidity;BME280_pressure;Samples;Min_cycle;Max_cycle;Signal;HPM_P1;HPM_P2
2022/11/06 00:00:33;;;;;;;11.85;5.00;;;10.50;99.90;;;;;;5010179;28;20081;-86
2022/11/06 00:02:59;;;;;;;13.43;4.82;;;10.40;99.90;;;;;;4975041;28;20258;-86
2022/11/06 00:08:10;;;;;;;12.75;5.05;;;10.40;99.90;;;;;;4996997;28;20411;-86
2022/11/06 00:10:36;;;;;;;12.43;4.82;;;10.40;99.90;;;;;;4993779;28;20037;-86
2022/11/06 00:13:02;;;;;;;11.82;5.30;;;10.90;99.90;;;;;;4990848;28;20034;-85
2022/11/06 00:15:28;;;;;;;11.40;5.25;;;10.70;99.90;;;;;;4978280;28;20041;-86
2022/11/06 00:17:54;;;;;;;11.57;5.00;;;10.40;99.90;;;;;;4993541;28;20086;-86
2022/11/06 00:20:20;;;;;;;12.60;5.00;;;10.30;99.90;;;;;;5009861;28;20074;-86
2022/11/06 00:22:45;;;;;;;13.52;5.47;;;10.50;99.90;;;;;;5010060;28;20089;-86
2022/11/06 00:25:11;;;;;;;13.38;5.18;;;10.30;99.90;;;;;;4993606;28;20037;-86
2022/11/06 00:27:39;;;;;;;12.60;5.10;;;10.30;99.90;;;;;;4977561;28;20507;-86
2022/11/06 00:30:07;;;;;;;12.35;5.25;;;10.50;99.90;;;;;;4990979;28;20049;-86
2022/11/06 00:32:33;;;;;;;11.35;5.32;;;10.30;99.90;;;;;;5018707;28;20410;-86
2022/11/06 00:34:58;;;;;;;16.20;5.90;;;10.30;99.90;;;;;;4985652;28;20053;-86
2022/11/06 00:37:24;;;;;;;12.55;5.80;;;10.20;99.90;;;;;;4996451;28;20087;-85
2022/11/06 00:39:50;;;;;;;15.85;5.70;;;10.20;99.90;;;;;;4979503;28;20124;-86
2022/11/06 00:42:15;;;;;;;12.25;5.57;;;10.10;99.90;;;;;;4968219;28;20120;-86
2022/11/06 00:44:41;;;;;;;14.65;5.80;;;10.10;99.90;;;;;;5013009;28;20509;-86
2022/11/06 00:47:07;;;;;;;11.63;6.10;;;10.10;99.90;;;;;;4996072;28;20044;-86
2022/11/06 00:49:33;;;;;;;13.45;6.47;;;10.10;99.90;;;;;;5029124;28;20056;-86
2022/11/06 00:52:00;;;;;;;14.50;6.45;;;10.10;99.90;;;;;;5012789;28;20053;-86
2022/11/06 00:54:25;;;;;;;16.40;6.57;;;10.00;99.90;;;;;;4965722;28;20133;-86
2022/11/06 00:56:51;;;;;;;13.60;6.32;;;10.00;99.90;;;;;;5010905;28;20128;-85
2022/11/06 00:59:17;;;;;;;12.00;6.50;;;10.00;99.90;;;;;;4996593;28;20299;-85
2022/11/06 01:01:44;;;;;;;12.85;6.38;;;10.00;99.90;;;;;;4995964;28;20090;-85
2022/11/06 01:04:15;;;;;;;12.90;5.97;;;10.00;99.90;;;;;;5012331;28;20043;-86
2022/11/06 01:06:44;;;;;;;11.63;6.40;;;9.90;99.90;;;;;;5028943;28;20187;-85
2022/11/06 01:09:13;;;;;;;16.10;6.20;;;9.90;99.90;;;;;;5012843;28;20405;-86
2022/11/06 01:11:42;;;;;;;19.23;7.82;;;9.90;99.90;;;;;;5029008;28;20045;-86
2022/11/06 01:14:11;;;;;;;15.80;7.82;;;9.90;99.90;;;;;;5029100;28;20128;-85
2022/11/06 01:16:37;;;;;;;13.43;6.72;;;9.90;99.90;;;;;;4985520;28;20039;-86
2022/11/06 01:19:04;;;;;;;15.32;7.35;;;9.90;99.90;;;;;;5029001;28;20040;-85
2022/11/06 01:21:33;;;;;;;13.93;7.15;;;9.90;99.90;;;;;;5028959;28;20037;-86
2022/11/06 01:24:01;;;;;;;14.85;6.65;;;9.80;99.90;;;;;;5012275;28;20048;-85
2022/11/06 01:26:28;;;;;;;12.50;6.80;;;9.80;99.90;;;;;;5012137;28;20045;-85
2022/11/06 01:28:55;;;;;;;15.95;7.30;;;9.80;99.90;;;;;;5028091;28;20033;-85
2022/11/06 01:31:24;;;;;;;14.32;7.13;;;9.80;99.90;;;;;;5012012;28;20156;-85
2022/11/06 01:33:50;;;;;;;14.27;7.03;;;9.80;99.90;;;;;;5028522;28;20049;-86
2022/11/06 01:36:17;;;;;;;15.38;7.00;;;9.80;99.90;;;;;;5012402;28;20096;-86
2022/11/06 01:38:46;;;;;;;17.30;7.63;;;9.80;99.90;;;;;;4993025;28;20038;-86
2022/11/06 01:41:29;;;;;;;13.27;6.50;;;9.80;99.90;;;;;;4992069;28;20602;-85
2022/11/06 01:44:01;;;;;;;15.10;7.18;;;9.80;99.90;;;;;;5006807;28;20038;-86
2022/11/06 01:46:30;;;;;;;15.23;7.97;;;9.80;99.90;;;;;;5005392;28;20239;-85
2022/11/06 01:49:07;;;;;;;14.00;7.13;;;9.80;99.90;;;;;;4992246;28;20038;-85
2022/11/06 01:51:42;;;;;;;18.63;7.65;;;9.80;99.90;;;;;;4992219;28;20041;-86
2022/11/06 01:54:08;;;;;;;13.57;7.30;;;9.80;99.90;;;;;;5008268;28;20423;-85
2022/11/06 01:56:36;;;;;;;15.18;7.28;;;9.80;99.90;;;;;;4978867;28;20056;-85
2022/11/06 01:59:04;;;;;;;14.68;7.85;;;9.80;99.90;;;;;;4976568;28;20042;-85
2022/11/06 02:01:29;;;;;;;15.13;8.25;;;10.50;99.90;;;;;;5008174;28;20069;-86
2022/11/06 02:04:16;;;;;;;15.10;7.35;;;9.70;99.90;;;;;;5020860;28;20045;-85
2022/11/06 02:06:44;;;;;;;17.85;7.78;;;9.70;99.90;;;;;;5011825;28;20395;-85
2022/11/06 02:09:12;;;;;;;16.23;7.65;;;11.00;99.90;;;;;;5011534;28;20348;-85
2022/11/06 02:11:41;;;;;;;15.88;7.70;;;9.70;99.90;;;;;;5011355;28;20048;-85
2022/11/06 02:14:28;;;;;;;15.55;7.90;;;9.70;99.90;;;;;;5002610;28;20521;-85
2022/11/06 02:17:04;;;;;;;16.20;8.02;;;9.70;99.90;;;;;;4991545;28;20100;-85
2022/11/06 02:19:54;;;;;;;14.05;7.85;;;9.70;99.90;;;;;;4991564;28;20038;-85
2022/11/06 02:22:20;;;;;;;13.57;7.50;;;9.80;99.90;;;;;;4991586;28;20124;-86
2022/11/06 02:25:19;;;;;;;16.00;8.13;;;9.70;99.90;;;;;;4991839;28;20042;-85
2022/11/06 02:27:53;;;;;;;15.02;8.05;;;9.70;99.90;;;;;;4991863;28;20096;-85
2022/11/06 02:30:19;;;;;;;14.02;7.55;;;9.70;99.90;;;;;;5007905;28;20082;-85
2022/11/06 02:32:56;;;;;;;15.25;8.07;;;9.70;99.90;;;;;;4991660;28;20056;-85
2022/11/06 02:35:27;;;;;;;14.55;7.80;;;9.70;99.90;;;;;;4990909;28;20053;-85
2022/11/06 02:37:58;;;;;;;17.20;8.88;;;9.70;99.90;;;;;;4990656;28;20041;-85
2022/11/06 02:40:30;;;;;;;14.73;7.85;;;10.10;99.90;;;;;;4993662;28;20125;-86
2022/11/06 02:43:00;;;;;;;17.63;8.48;;;9.90;99.90;;;;;;4995340;28;20037;-85
2022/11/06 02:45:28;;;;;;;14.20;8.20;;;9.70;99.90;;;;;;4995360;28;20042;-85
2022/11/06 02:47:55;;;;;;;14.25;7.63;;;9.70;99.90;;;;;;4995699;28;20092;-86
2022/11/06 02:50:28;;;;;;;13.73;7.60;;;9.70;99.90;;;;;;4975889;28;20054;-86
2022/11/06 02:53:00;;;;;;;12.57;7.93;;;9.70;99.90;;;;;;4982295;28;20037;-86
2022/11/06 02:55:36;;;;;;;15.20;7.97;;;9.70;99.90;;;;;;5011550;28;20100;-85
2022/11/06 02:58:27;;;;;;;14.90;8.40;;;9.70;99.90;;;;;;4995752;28;20068;-85
2022/11/06 03:00:58;;;;;;;16.08;8.30;;;9.60;99.90;;;;;;4995397;28;20046;-85
2022/11/06 03:03:28;;;;;;;16.08;8.45;;;9.70;99.90;;;;;;4995525;28;20050;-85
2022/11/06 03:06:11;;;;;;;20.20;8.80;;;9.70;99.90;;;;;;5011308;28;20044;-85
2022/11/06 03:08:48;;;;;;;15.23;8.82;;;9.70;99.90;;;;;;4995169;28;20042;-86
2022/11/06 03:11:26;;;;;;;14.75;8.23;;;9.70;99.90;;;;;;4994806;28;20041;-85
2022/11/06 03:14:05;;;;;;;16.13;8.57;;;9.70;99.90;;;;;;4993324;28;20543;-86
2022/11/06 03:16:49;;;;;;;15.45;8.38;;;9.70;99.90;;;;;;5011226;28;20277;-86
2022/11/06 03:19:23;;;;;;;15.50;8.38;;;9.70;99.90;;;;;;5011064;28;20065;-86
2022/11/06 03:22:08;;;;;;;16.33;8.30;;;9.70;99.90;;;;;;5011151;28;20117;-86
2022/11/06 03:25:12;;;;;;;14.40;7.75;;;9.80;99.90;;;;;;4994874;28;20033;-86
2022/11/06 03:27:45;;;;;;;14.38;7.95;;;9.70;99.90;;;;;;4954275;28;20042;-85
2022/11/06 03:30:12;;;;;;;;;;;9.70;99.90;;;;;;4995561;28;20052;-86
2022/11/06 03:32:42;;;;;;;14.90;7.60;;;9.70;99.90;;;;;;5014619;28;20020;-86
2022/11/06 03:35:11;;;;;;;13.10;7.68;;;10.20;99.90;;;;;;5005617;28;20042;-86
2022/11/06 03:37:45;;;;;;;14.32;8.25;;;9.60;99.90;;;;;;4988149;28;20033;-86
2022/11/06 03:40:16;;;;;;;13.07;8.10;;;10.00;99.90;;;;;;5014166;28;20046;-86
2022/11/06 03:42:43;;;;;;;16.83;8.18;;;9.70;99.90;;;;;;5031003;28;20410;-86
2022/11/06 03:45:15;;;;;;;14.77;8.35;;;10.30;99.90;;;;;;5030434;28;20045;-85
2022/11/06 03:47:46;;;;;;;14.27;7.80;;;9.60;99.90;;;;;;5030717;28;20088;-86
2022/11/06 03:50:32;;;;;;;13.88;7.80;;;9.70;99.90;;;;;;5014027;28;20060;-84
2022/11/06 03:53:05;;;;;;;14.63;7.65;;;9.70;99.90;;;;;;5029934;28;20457;-84
2022/11/06 03:55:49;;;;;;;16.90;8.35;;;9.70;99.90;;;;;;5013388;28;20049;-84
2022/11/06 03:58:28;;;;;;;14.63;7.88;;;9.70;99.90;;;;;;5014083;28;20541;-86
2022/11/06 04:00:56;;;;;;;15.10;8.20;;;9.70;99.90;;;;;;4998187;28;20042;-86
2022/11/06 04:03:33;;;;;;;14.32;8.13;;;9.90;99.90;;;;;;4975277;28;20050;-87
2022/11/06 04:06:05;;;;;;;13.63;7.65;;;9.70;99.90;;;;;;4993874;28;20053;-84
2022/11/06 04:14:06;;;;;;;15.10;7.53;;;9.90;99.90;;;;;;5008747;28;20065;-85
2022/11/06 04:16:42;;;;;;;12.32;6.47;;;9.70;99.90;;;;;;4977696;28;20049;-84
2022/11/06 04:19:17;;;;;;;13.55;6.97;;;9.70;99.90;;;;;;5009954;28;20048;-84
2022/11/06 04:21:48;;;;;;;16.58;7.22;;;9.60;99.90;;;;;;4993718;28;20054;-83
2022/11/06 04:27:46;;;;;;;14.05;6.90;;;9.70;99.90;;;;;;5009718;28;20053;-84
2022/11/06 04:30:16;;;;;;;13.27;7.00;;;9.60;99.90;;;;;;5010310;28;20130;-84
2022/11/06 04:32:57;;;;;;;13.25;7.25;;;9.60;99.90;;;;;;5013398;28;20102;-84
2022/11/06 04:35:33;;;;;;;15.27;6.85;;;9.70;99.90;;;;;;4993826;28;20108;-84
2022/11/06 04:38:24;;;;;;;14.65;7.18;;;9.60;99.90;;;;;;4993726;28;20274;-85
2022/11/06 04:41:15;;;;;;;15.13;7.35;;;9.70;99.90;;;;;;5009539;28;20121;-84
2022/11/06 04:43:44;;;;;;;15.27;6.75;;;9.70;99.90;;;;;;5005006;28;20125;-84
2022/11/06 04:46:16;;;;;;;15.15;6.78;;;9.70;99.90;;;;;;5009740;28;20042;-84
2022/11/06 04:48:42;;;;;;;14.45;6.75;;;9.60;99.90;;;;;;5009625;28;20034;-84
2022/11/06 04:51:10;;;;;;;14.55;6.90;;;10.30;99.90;;;;;;4973321;28;20041;-85
2022/11/06 04:53:36;;;;;;;14.10;6.63;;;9.70;99.90;;;;;;5012673;28;20057;-84
2022/11/06 04:56:11;;;;;;;14.43;6.55;;;9.70;99.90;;;;;;4980087;28;20053;-84
2022/11/06 04:58:37;;;;;;;15.43;6.47;;;9.70;99.90;;;;;;5013062;28;20029;-85
2022/11/06 05:01:03;;;;;;;14.30;6.82;;;9.70;99.90;;;;;;4996336;28;20141;-85
2022/11/06 05:03:29;;;;;;;15.32;6.70;;;9.70;99.90;;;;;;5003057;28;20044;-84
2022/11/06 05:05:55;;;;;;;14.27;6.90;;;9.70;99.90;;;;;;4989436;28;20129;-85
2022/11/06 05:08:21;;;;;;;13.80;6.60;;;9.70;99.90;;;;;;4975487;28;20099;-86
2022/11/06 05:10:47;;;;;;;13.57;6.50;;;9.70;99.90;;;;;;4992748;28;20543;-84
2022/11/06 05:13:14;;;;;;;14.20;6.18;;;9.70;99.90;;;;;;4992883;28;20041;-85
2022/11/06 05:15:40;;;;;;;12.77;6.18;;;10.40;99.90;;;;;;4992348;28;20109;-84
2022/11/06 05:18:06;;;;;;;13.43;6.60;;;9.70;99.90;;;;;;5009319;28;20474;-85
2022/11/06 05:20:32;;;;;;;12.85;6.20;;;9.70;99.90;;;;;;5008874;28;20049;-85
2022/11/06 05:23:01;;;;;;;11.98;5.68;;;9.70;99.90;;;;;;4975616;28;20043;-84
2022/11/06 05:25:36;;;;;;;14.73;6.22;;;9.70;99.90;;;;;;4992564;28;20100;-85
2022/11/06 05:28:04;;;;;;;13.52;6.32;;;8.50;99.90;;;;;;5009289;28;20042;-85
2022/11/06 05:30:30;;;;;;;13.50;6.20;;;9.70;99.90;;;;;;4992838;28;20053;-85
2022/11/06 05:32:56;;;;;;;13.65;6.10;;;9.70;99.90;;;;;;4976094;28;20045;-84
2022/11/06 05:35:21;;;;;;;14.02;6.03;;;9.70;99.90;;;;;;5011876;28;20046;-84
2022/11/06 05:37:47;;;;;;;12.93;6.15;;;9.70;99.90;;;;;;4996014;28;20072;-85
2022/11/06 05:40:13;;;;;;;15.55;5.80;;;9.70;99.90;;;;;;4972996;28;20054;-85
2022/11/06 05:42:40;;;;;;;15.20;5.90;;;9.70;99.90;;;;;;4987193;28;20037;-85
2022/11/06 05:45:07;;;;;;;14.27;5.60;;;9.70;99.90;;;;;;4988783;28;20042;-85
2022/11/06 05:47:33;;;;;;;13.48;5.60;;;9.70;99.90;;;;;;4970588;28;20053;-84
2022/11/06 05:49:59;;;;;;;12.50;5.72;;;9.70;99.90;;;;;;5008850;28;20427;-85
2022/11/06 05:52:25;;;;;;;12.63;5.72;;;9.70;99.90;;;;;;4976275;28;20057;-84
2022/11/06 05:54:51;;;;;;;14.05;5.47;;;9.70;99.90;;;;;;4972346;28;20058;-85
2022/11/06 05:57:17;;;;;;;13.07;5.53;;;9.70;99.90;;;;;;4968142;28;20320;-85
2022/11/06 05:59:43;;;;;;;18.13;6.20;;;9.70;99.90;;;;;;4988738;28;20117;-85
2022/11/06 06:02:09;;;;;;;11.40;5.45;;;9.70;99.90;;;;;;4962167;28;20049;-85
2022/11/06 06:04:34;;;;;;;12.00;5.55;;;10.80;99.90;;;;;;4979007;28;20044;-84
2022/11/06 06:07:00;;;;;;;15.05;5.72;;;9.70;99.90;;;;;;4979353;28;20045;-85
2022/11/06 06:09:26;;;;;;;14.27;5.50;;;9.70;99.90;;;;;;4995448;28;20438;-85
2022/11/06 06:11:52;;;;;;;16.33;5.55;;;9.80;99.90;;;;;;5011510;28;20045;-84
2022/11/06 06:14:19;;;;;;;15.73;5.45;;;9.80;99.90;;;;;;5000542;28;20042;-85
2022/11/06 06:16:45;;;;;;;13.85;5.10;;;9.70;99.90;;;;;;4992021;28;20049;-85
2022/11/06 06:19:12;;;;;;;13.75;5.40;;;10.00;99.90;;;;;;4990097;28;20049;-85
2022/11/06 06:21:38;;;;;;;13.48;5.35;;;9.70;99.90;;;;;;4991898;28;20038;-84
2022/11/06 06:24:05;;;;;;;12.38;5.43;;;9.70;99.90;;;;;;4975633;28;20048;-85
2022/11/06 06:26:31;;;;;;;13.93;5.30;;;9.70;99.90;;;;;;4982570;28;20042;-84
2022/11/06 06:28:57;;;;;;;12.65;5.38;;;9.70;99.90;;;;;;4995089;28;20041;-85
2022/11/06 06:31:23;;;;;;;11.75;5.00;;;9.70;99.90;;;;;;5027594;28;20128;-85
2022/11/06 06:33:49;;;;;;;13.73;5.22;;;9.70;99.90;;;;;;5027686;28;20042;-85
2022/11/06 06:36:14;;;;;;;11.35;4.53;;;10.40;99.90;;;;;;5010967;28;20067;-85
2022/11/06 06:38:40;;;;;;;16.83;5.47;;;10.10;99.90;;;;;;4995241;28;20084;-85
2022/11/06 06:41:08;;;;;;;12.57;4.72;;;9.70;99.90;;;;;;4994495;28;20506;-85
2022/11/06 06:43:34;;;;;;;12.32;4.43;;;9.70;99.90;;;;;;5011788;28;20037;-85
2022/11/06 06:46:02;;;;;;;12.82;4.80;;;9.70;99.90;;;;;;5027295;28;20509;-85
2022/11/06 06:48:28;;;;;;;13.85;4.75;;;9.70;99.90;;;;;;4995236;28;20121;-85
2022/11/06 06:50:59;;;;;;;13.52;4.78;;;9.90;99.90;;;;;;5011107;28;20470;-85
2022/11/06 06:53:25;;;;;;;12.25;4.45;;;9.70;99.90;;;;;;5011664;28;20116;-85
2022/11/06 06:55:50;;;;;;;12.82;4.50;;;9.70;99.90;;;;;;4994327;28;20049;-85
2022/11/06 06:58:16;;;;;;;13.27;4.90;;;9.70;99.90;;;;;;4994762;28;20201;-85
2022/11/06 07:00:42;;;;;;;14.50;4.30;;;9.70;99.90;;;;;;4978613;28;20094;-85
2022/11/06 07:03:09;;;;;;;11.25;4.70;;;9.80;99.90;;;;;;5000719;28;20463;-85
2022/11/06 07:05:35;;;;;;;10.80;4.40;;;9.80;99.90;;;;;;4971296;28;20081;-85
2022/11/06 07:08:01;;;;;;;10.57;3.88;;;9.80;99.90;;;;;;4975478;28;20395;-85
2022/11/06 07:10:27;;;;;;;13.15;4.53;;;9.90;99.90;;;;;;5007068;28;20045;-85
2022/11/06 07:12:52;;;;;;;11.75;4.10;;;9.90;99.90;;;;;;4991563;28;20140;-85
2022/11/06 07:15:18;;;;;;;11.48;4.20;;;9.90;99.90;;;;;;5007290;28;20077;-85
2022/11/06 07:17:44;;;;;;;13.55;4.47;;;9.90;99.90;;;;;;4966704;28;20037;-86
2022/11/06 07:20:10;;;;;;;12.20;4.18;;;10.00;99.90;;;;;;4994319;28;20120;-86
2022/11/06 07:22:35;;;;;;;12.93;4.05;;;10.00;99.90;;;;;;4994774;28;20033;-85
2022/11/06 07:25:01;;;;;;;11.50;4.05;;;10.50;99.90;;;;;;4994425;28;20041;-85
2022/11/06 07:27:28;;;;;;;11.80;4.00;;;10.00;99.90;;;;;;4996599;28;20406;-86
2022/11/06 07:29:53;;;;;;;11.90;3.97;;;10.10;99.90;;;;;;4998325;28;20045;-85
2022/11/06 07:32:19;;;;;;;12.07;4.07;;;10.10;99.90;;;;;;5014093;28;20053;-85
2022/11/06 07:34:45;;;;;;;11.80;4.25;;;10.60;99.90;;;;;;4981865;28;20045;-86
2022/11/06 07:37:11;;;;;;;13.75;3.83;;;10.30;99.90;;;;;;5013929;28;20073;-86
2022/11/06 07:39:36;;;;;;;12.25;4.20;;;10.20;99.90;;;;;;4999756;28;20034;-85
2022/11/06 07:42:02;;;;;;;12.00;4.00;;;10.20;99.90;;;;;;4978177;28;20498;-85
2022/11/06 07:44:28;;;;;;;12.57;4.72;;;10.30;99.90;;;;;;4964427;28;20313;-85
2022/11/06 07:46:53;;;;;;;14.45;3.80;;;9.50;99.90;;;;;;5014031;28;20048;-85
2022/11/06 07:49:19;;;;;;;14.93;3.90;;;10.30;99.90;;;;;;4986349;28;20049;-85
2022/11/06 07:51:45;;;;;;;13.60;3.60;;;10.30;99.90;;;;;;5005266;28;20053;-85
2022/11/06 07:54:11;;;;;;;11.20;3.97;;;10.40;99.90;;;;;;4977606;28;20137;-85
2022/11/06 07:56:37;;;;;;;13.60;4.10;;;10.40;99.90;;;;;;4974631;28;20061;-85
2022/11/06 07:59:03;;;;;;;9.93;3.60;;;10.50;99.90;;;;;;4964887;28;20503;-85
2022/11/06 08:01:29;;;;;;;10.98;3.97;;;10.60;99.90;;;;;;5010416;28;20073;-84
2022/11/06 08:03:55;;;;;;;9.35;3.60;;;10.40;99.90;;;;;;5010356;28;20131;-85
2022/11/06 08:06:20;;;;;;;11.43;3.72;;;10.40;99.90;;;;;;5010266;28;20073;-84
2022/11/06 08:08:46;;;;;;;12.73;3.63;;;10.40;99.90;;;;;;5010671;28;20045;-85
2022/11/06 08:11:13;;;;;;;12.27;3.60;;;10.40;99.90;;;;;;5010220;28;20056;-85
2022/11/06 08:13:38;;;;;;;11.40;3.58;;;10.40;99.90;;;;;;4974466;28;20061;-85
2022/11/06 08:16:05;;;;;;;10.95;3.85;;;10.40;99.90;;;;;;5000502;28;20518;-85
2022/11/06 08:18:31;;;;;;;12.23;3.80;;;10.30;99.90;;;;;;5010064;28;20049;-85
2022/11/06 08:20:56;;;;;;;12.25;3.20;;;10.30;99.90;;;;;;4970626;28;20038;-85
2022/11/06 08:23:22;;;;;;;13.45;3.60;;;10.30;99.90;;;;;;5029932;28;20410;-84
2022/11/06 08:25:48;;;;;;;10.48;3.40;;;10.40;99.90;;;;;;5013410;28;20116;-85
2022/11/06 08:28:14;;;;;;;12.50;3.53;;;10.40;99.90;;;;;;5011388;28;20514;-85
2022/11/06 08:30:39;;;;;;;11.82;3.95;;;10.30;99.90;;;;;;4985001;28;20171;-85
2022/11/06 08:33:06;;;;;;;9.93;3.28;;;10.30;99.90;;;;;;4996735;28;20546;-85
2022/11/06 08:35:35;;;;;;;12.32;3.55;;;10.30;99.90;;;;;;5012860;28;20434;-85
2022/11/06 08:38:01;;;;;;;13.57;3.80;;;10.30;99.90;;;;;;4996468;28;20347;-85
2022/11/06 08:40:27;;;;;;;13.52;3.42;;;10.30;99.90;;;;;;5013038;28;20246;-84
2022/11/06 08:43:01;;;;;;;10.45;3.30;;;10.30;99.90;;;;;;5013178;28;20490;-85
2022/11/06 08:45:26;;;;;;;12.10;3.42;;;10.30;99.90;;;;;;5012602;28;20120;-85
2022/11/06 08:47:52;;;;;;;10.50;3.30;;;10.30;99.90;;;;;;5013327;28;20168;-85
2022/11/06 08:50:18;;;;;;;12.80;3.60;;;10.30;99.90;;;;;;4996264;28;20544;-85
2022/11/06 08:52:43;;;;;;;13.63;3.95;;;10.40;99.90;;;;;;5012759;28;20045;-85
2022/11/06 08:55:09;;;;;;;10.70;3.25;;;10.40;99.90;;;;;;4996039;28;20049;-85
2022/11/06 08:57:35;;;;;;;9.88;3.35;;;10.40;99.90;;;;;;4996445;28;20033;-85
2022/11/06 09:00:00;;;;;;;12.35;3.40;;;10.50;99.90;;;;;;5028881;28;20088;-85
2022/11/06 09:02:26;;;;;;;11.02;3.22;;;10.50;99.90;;;;;;5012990;28;20083;-85
2022/11/06 09:04:52;;;;;;;12.73;3.53;;;10.50;99.90;;;;;;4995985;28;20041;-85
2022/11/06 09:07:17;;;;;;;11.95;3.20;;;10.50;99.90;;;;;;4979978;28;20044;-85
2022/11/06 09:09:43;;;;;;;9.98;2.83;;;10.70;99.90;;;;;;5012701;28;20055;-85
2022/11/06 09:12:09;;;;;;;11.40;3.47;;;10.50;99.90;;;;;;5012524;28;20037;-85
2022/11/06 09:14:35;;;;;;;11.73;3.00;;;10.50;99.90;;;;;;4982535;28;20278;-85
2022/11/06 09:17:01;;;;;;;10.30;3.30;;;10.50;99.90;;;;;;4985363;28;20045;-85
2022/11/06 09:19:26;;;;;;;11.88;3.22;;;10.60;99.90;;;;;;4996053;28;20064;-85
2022/11/06 09:21:52;;;;;;;11.52;3.10;;;10.70;99.90;;;;;;4996146;28;20044;-85
2022/11/06 09:24:18;;;;;;;16.75;3.10;;;10.70;99.90;;;;;;5012158;28;20042;-85
2022/11/06 09:26:44;;;;;;;12.75;3.00;;;10.70;99.90;;;;;;4995450;28;20568;-85
2022/11/06 09:29:09;;;;;;;8.75;2.80;;;10.80;99.90;;;;;;4992619;28;20046;-85
2022/11/06 09:31:35;;;;;;;13.85;3.17;;;10.90;99.90;;;;;;4968934;28;20175;-86
2022/11/06 09:34:02;;;;;;;9.52;2.65;;;10.90;99.90;;;;;;5028540;28;20271;-85
2022/11/06 09:36:27;;;;;;;11.13;3.13;;;11.00;99.90;;;;;;4995375;28;20042;-85
2022/11/06 09:38:53;;;;;;;11.10;2.92;;;11.00;99.90;;;;;;5012460;28;20053;-86
2022/11/06 09:41:57;;;;;;;11.10;3.03;;;11.00;99.90;;;;;;5011747;28;20525;-86
2022/11/06 09:44:47;;;;;;;9.63;2.80;;;11.00;99.90;;;;;;5011178;28;20060;-86
2022/11/06 09:47:17;;;;;;;10.40;2.97;;;11.00;99.90;;;;;;5011733;28;20124;-86
2022/11/06 09:49:52;;;;;;;13.10;3.28;;;11.00;99.90;;;;;;5027894;28;20363;-86
2022/11/06 09:52:21;;;;;;;11.45;2.85;;;11.00;99.90;;;;;;5028128;28;20522;-86
2022/11/06 09:55:01;;;;;;;13.73;3.60;;;12.10;99.90;;;;;;5028030;28;20570;-86
2022/11/06 09:57:31;;;;;;;13.23;3.10;;;11.00;99.90;;;;;;5011846;28;20454;-85
2022/11/06 09:59:59;;;;;;;8.27;2.67;;;11.10;99.90;;;;;;5011977;28;20068;-85
2022/11/06 10:02:55;;;;;;;10.35;3.00;;;11.10;99.90;;;;;;4994352;28;20505;-85
2022/11/06 10:05:31;;;;;;;10.50;2.92;;;11.20;99.90;;;;;;5007730;28;20057;-86
2022/11/06 10:08:17;;;;;;;10.43;2.90;;;11.30;99.90;;;;;;4991813;28;20095;-86
2022/11/06 10:11:16;;;;;;;9.43;2.75;;;11.30;99.90;;;;;;5005097;28;20172;-86
2022/11/06 10:14:06;;;;;;;8.90;2.75;;;11.40;99.90;;;;;;4985009;28;20050;-86
2022/11/06 10:17:05;;;;;;;10.98;3.08;;;11.40;99.90;;;;;;4980604;28;20140;-86
2022/11/06 10:19:38;;;;;;;9.43;2.60;;;11.40;99.90;;;;;;4991863;28;20042;-86
2022/11/06 10:22:14;;;;;;;8.85;2.40;;;11.50;99.90;;;;;;5008413;28;20044;-85
2022/11/06 10:24:58;;;;;;;8.02;2.40;;;11.50;99.90;;;;;;5008382;28;20042;-86
2022/11/06 10:27:37;;;;;;;11.50;2.60;;;11.60;99.90;;;;;;4991595;28;20077;-86
2022/11/06 10:30:09;;;;;;;8.18;2.42;;;11.70;99.90;;;;;;5008448;28;20322;-86
2022/11/06 10:32:57;;;;;;;10.23;2.80;;;11.70;99.90;;;;;;4991693;28;20041;-87
2022/11/06 10:35:29;;;;;;;10.27;2.47;;;11.80;99.90;;;;;;4991200;28;20048;-86
2022/11/06 10:38:15;;;;;;;8.73;2.40;;;11.80;99.90;;;;;;4991863;28;20125;-85
2022/11/06 10:40:50;;;;;;;10.20;2.63;;;11.80;99.90;;;;;;4991425;28;20630;-86
2022/11/06 10:43:28;;;;;;;11.23;2.50;;;11.90;99.90;;;;;;4999994;28;20059;-86
2022/11/06 10:46:00;;;;;;;10.18;2.38;;;11.90;99.90;;;;;;4989950;28;20041;-86
2022/11/06 10:48:36;;;;;;;8.18;2.13;;;11.90;99.90;;;;;;4991399;28;20042;-86
2022/11/06 10:51:36;;;;;;;8.93;2.40;;;11.90;99.90;;;;;;5007616;28;20296;-86
2022/11/06 10:54:20;;;;;;;7.72;2.30;;;11.90;99.90;;;;;;5007806;28;20483;-87
2022/11/06 10:57:11;;;;;;;9.63;2.30;;;11.90;99.90;;;;;;5007581;28;20053;-86
2022/11/06 10:59:37;;;;;;;9.45;2.22;;;12.00;99.90;;;;;;5007605;28;20046;-86
2022/11/06 11:02:04;;;;;;;9.45;2.65;;;12.00;99.90;;;;;;4978021;28;20134;-86
2022/11/06 11:04:31;;;;;;;10.43;2.50;;;11.90;99.90;;;;;;4991879;28;20049;-86
2022/11/06 11:07:01;;;;;;;11.50;2.33;;;12.00;99.90;;;;;;4973990;28;20109;-86
2022/11/06 11:09:31;;;;;;;10.18;2.65;;;12.00;99.90;;;;;;4979531;28;20038;-86
2022/11/06 11:11:57;;;;;;;8.98;2.42;;;12.00;99.90;;;;;;4995261;28;20041;-86
2022/11/06 11:14:29;;;;;;;11.05;2.50;;;12.20;99.90;;;;;;4986778;28;20045;-86
2022/11/06 11:16:58;;;;;;;9.25;2.42;;;12.00;99.90;;;;;;5030853;28;20134;-85
2022/11/06 11:19:40;;;;;;;7.43;2.25;;;12.10;99.90;;;;;;5014897;28;20099;-86
2022/11/06 11:22:15;;;;;;;9.65;2.55;;;12.10;99.90;;;;;;4998321;28;20056;-85
2022/11/06 11:25:23;;;;;;;9.00;2.20;;;12.20;99.90;;;;;;5014627;28;20041;-85
2022/11/06 11:27:49;;;;;;;10.73;2.50;;;12.10;99.90;;;;;;5028285;28;20080;-86
2022/11/06 11:30:25;;;;;;;7.82;2.20;;;12.10;99.90;;;;;;4997740;28;20041;-86
2022/11/06 11:32:55;;;;;;;8.23;2.25;;;12.10;99.90;;;;;;5003474;28;20049;-86
2022/11/06 11:35:27;;;;;;;8.35;2.58;;;12.10;99.90;;;;;;4994359;28;20128;-86
2022/11/06 11:38:13;;;;;;;12.02;2.60;;;12.10;99.90;;;;;;5011022;28;20041;-85
2022/11/06 11:40:40;;;;;;;10.57;2.35;;;12.00;99.90;;;;;;4994570;28;20196;-85
2022/11/06 11:43:24;;;;;;;8.00;2.10;;;11.90;99.90;;;;;;4978342;28;20038;-86
2022/11/06 11:46:17;;;;;;;9.57;2.40;;;11.90;99.90;;;;;;5010682;28;20490;-86
2022/11/06 11:48:45;;;;;;;;;;;11.90;99.90;;;;;;4993479;28;20527;-86
2022/11/06 11:51:28;;;;;;;8.30;2.30;;;11.80;99.90;;;;;;4994210;28;20013;-85
2022/11/06 11:54:16;;;;;;;8.63;2.47;;;11.90;99.90;;;;;;4994108;28;20061;-86
2022/11/06 11:56:52;;;;;;;9.98;2.47;;;11.80;99.90;;;;;;4994058;28;20041;-85
2022/11/06 11:59:40;;;;;;;8.27;2.42;;;11.80;99.90;;;;;;5010466;28;20454;-86
2022/11/06 12:02:40;;;;;;;8.95;2.38;;;11.80;99.90;;;;;;4993588;28;20042;-86
2022/11/06 12:05:12;;;;;;;9.55;2.25;;;11.70;99.90;;;;;;4993609;28;20136;-85
2022/11/06 12:07:42;;;;;;;8.32;2.40;;;11.70;99.90;;;;;;4994259;28;20038;-86
2022/11/06 12:10:29;;;;;;;9.90;2.22;;;11.70;99.90;;;;;;4993804;28;20038;-85
2022/11/06 12:12:57;;;;;;;10.00;2.42;;;11.70;99.90;;;;;;4993809;28;20402;-86
2022/11/06 12:15:33;;;;;;;11.38;2.65;;;11.60;99.90;;;;;;4996748;28;20045;-86
2022/11/06 12:18:08;;;;;;;13.05;2.72;;;11.60;99.90;;;;;;4994484;28;20061;-85
2022/11/06 12:20:58;;;;;;;10.57;2.45;;;11.60;99.90;;;;;;4993525;28;20045;-85
2022/11/06 12:23:27;;;;;;;8.70;2.13;;;11.70;99.90;;;;;;4993888;28;20042;-86
2022/11/06 12:26:03;;;;;;;8.15;2.40;;;11.70;99.90;;;;;;4993378;28;20767;-84
2022/11/06 12:28:32;;;;;;;10.25;2.53;;;11.80;99.90;;;;;;4993668;28;20137;-85
2022/11/06 12:31:17;;;;;;;9.18;2.58;;;11.80;99.90;;;;;;4993293;28;20042;-85
2022/11/06 12:33:47;;;;;;;9.32;2.50;;;11.90;99.90;;;;;;4993655;28;20069;-86
2022/11/06 12:36:19;;;;;;;12.57;2.78;;;12.00;99.90;;;;;;4993197;28;20108;-86
2022/11/06 12:38:47;;;;;;;10.02;2.55;;;12.10;99.90;;;;;;4993608;28;20525;-85
2022/11/06 12:41:24;;;;;;;10.57;2.28;;;12.20;99.90;;;;;;4993610;28;20046;-85
2022/11/06 12:43:50;;;;;;;10.00;2.50;;;12.30;99.90;;;;;;4993578;28;20048;-86
2022/11/06 12:46:32;;;;;;;10.77;2.55;;;12.40;99.90;;;;;;4993106;28;20069;-86
2022/11/06 12:49:01;;;;;;;10.73;2.70;;;12.50;99.90;;;;;;5009656;28;20502;-86
2022/11/06 12:51:46;;;;;;;9.88;2.28;;;12.60;99.90;;;;;;5009443;28;20084;-86
2022/11/06 12:54:33;;;;;;;7.57;2.20;;;12.70;99.90;;;;;;4992764;28;20104;-86
2022/11/06 12:57:18;;;;;;;9.07;2.30;;;12.70;99.90;;;;;;5009314;28;20121;-86
2022/11/06 13:00:10;;;;;;;8.32;2.10;;;12.70;99.90;;;;;;4992811;28;20514;-85
2022/11/06 13:02:57;;;;;;;9.77;2.10;;;12.70;99.90;;;;;;5008920;28;20388;-87
2022/11/06 13:05:42;;;;;;;7.97;1.83;;;12.70;99.90;;;;;;5009143;28;20248;-86
2022/11/06 13:08:30;;;;;;;8.85;2.00;;;12.70;99.90;;;;;;5009377;28;20042;-86
2022/11/06 13:10:59;;;;;;;9.80;2.08;;;12.60;99.90;;;;;;4992452;28;20073;-86
2022/11/06 13:13:44;;;;;;;10.95;2.30;;;12.60;99.90;;;;;;4997094;28;20041;-86
2022/11/06 13:16:12;;;;;;;8.85;2.00;;;12.60;99.90;;;;;;5009113;28;20417;-86